createdAt,value
2023-01-22T12:07:32.278Z,1.43
2023-01-22T12:10:24.164Z,1.49
2023-01-22T22:08:14.590Z,-1.15
2023-01-22T22:10:58.091Z,-1.07
2023-01-22T22:13:35.966Z,-1.06
2023-01-22T22:19:23.092Z,-1.06
2023-01-22T22:22:03.639Z,-1.11
2023-01-22T22:24:33.829Z,-1.14
2023-01-22T22:27:01.795Z,-1.16
2023-01-22T22:29:33.081Z,-1.15
2023-01-22T22:32:05.611Z,-1.12
2023-01-22T22:34:32.934Z,-1.08
2023-01-22T22:37:01.029Z,-1.06
2023-01-22T22:39:29.477Z,-1.06
2023-01-22T22:42:20.860Z,-1.06
2023-01-22T22:44:52.832Z,-1.02
2023-01-22T22:47:24.060Z,-0.98
2023-01-22T22:49:57.057Z,-0.99
2023-01-22T22:52:25.548Z,-0.98
2023-01-22T22:55:02.537Z,-0.98
2023-01-22T22:57:31.069Z,-1.02
2023-01-22T22:59:58.826Z,-1.04
2023-01-22T23:02:36.959Z,-1.01
2023-01-22T23:05:07.887Z,-0.98
2023-01-22T23:07:36.827Z,-0.98
2023-01-22T23:10:05.940Z,-0.96
2023-01-22T23:12:38.011Z,-0.93
2023-01-22T23:15:06.161Z,-0.91
2023-01-22T23:17:36.581Z,-0.91
2023-01-22T23:20:03.928Z,-0.89
2023-01-22T23:22:34.724Z,-0.87
2023-01-22T23:25:01.922Z,-0.82
2023-01-22T23:27:31.998Z,-0.78
2023-01-22T23:29:59.235Z,-0.76
2023-01-22T23:32:27.407Z,-0.75
2023-01-22T23:49:33.988Z,-0.23
2023-01-22T23:52:01.396Z,-0.15
2023-01-22T23:54:30.550Z,-0.15
2023-01-22T23:56:58.293Z,-0.15
2023-01-22T23:59:25.547Z,-0.17
